Terminal Aerodrome Forecast
Issued by NWS Amarillo, TX

Current Version | Previous Version | Text Only | Print | Product List | Glossary On
Versions: 1 2 3 4 5 6 7 8 9 10 11 12 13 14
000
FTUS44 KAMA 252320
TAFDHT
TAF
KDHT 252320Z 2600/2624 23015G24KT P6SM BKN250
     FM260700 33013KT P6SM BKN250
     FM261600 03010KT P6SM SCT150
     FM262100 21015KT P6SM SCT100=

USA.gov is the U.S. government's official web portal to all federal, state and local government web resources and services.